createdAt,value
2022-08-26T07:02:46.951Z,14.45
2022-08-26T07:05:19.053Z,41.58
2022-08-26T07:07:52.340Z,7.15
2022-08-26T07:10:23.903Z,5.80
2022-08-26T07:12:55.419Z,5.78
2022-08-26T07:15:31.051Z,4.92
2022-08-26T07:18:00.075Z,5.03
2022-08-26T07:20:31.960Z,15.65
2022-08-26T07:23:03.466Z,12.00
2022-08-26T07:25:34.991Z,5.80
2022-08-26T07:28:06.761Z,5.92
2022-08-26T07:30:41.630Z,5.95
2022-08-26T07:33:12.937Z,5.70
2022-08-26T07:35:45.753Z,9.23
2022-08-26T07:38:17.273Z,8.23
2022-08-26T07:40:48.769Z,5.80
2022-08-26T07:43:20.428Z,7.20
2022-08-26T07:45:51.964Z,4.83
2022-08-26T07:48:23.388Z,5.30
2022-08-26T07:50:54.950Z,5.33
2022-08-26T07:53:27.037Z,5.22
2022-08-26T07:55:59.645Z,4.80
2022-08-26T07:58:30.997Z,6.80
2022-08-26T08:01:02.552Z,8.50
2022-08-26T08:03:35.674Z,6.53
2022-08-26T08:06:07.947Z,8.75
2022-08-26T08:08:41.515Z,29.98
2022-08-26T08:11:13.249Z,7.08
2022-08-26T08:13:44.779Z,6.20
2022-08-26T08:16:17.465Z,6.65
2022-08-26T08:18:49.475Z,8.25
2022-08-26T08:21:23.897Z,5.17
2022-08-26T08:23:56.494Z,6.10
2022-08-26T08:26:28.418Z,7.50
2022-08-26T08:29:00.220Z,8.78
2022-08-26T08:34:07.533Z,5.55
2022-08-26T08:36:38.993Z,5.78
2022-08-26T08:39:10.488Z,6.33
2022-08-26T08:42:07.365Z,8.78
2022-08-26T08:44:43.290Z,9.45
2022-08-26T08:47:18.103Z,6.60
2022-08-26T08:49:49.537Z,7.22
2022-08-26T08:52:25.596Z,7.83
2022-08-26T08:54:58.710Z,9.00
2022-08-26T08:57:34.663Z,9.08
2022-08-26T09:00:11.881Z,6.20
2022-08-26T09:02:46.817Z,6.53
2022-08-26T09:05:23.214Z,4.75
2022-08-26T09:07:58.904Z,5.28
2022-08-26T09:10:35.961Z,6.58
2022-08-26T09:13:16.393Z,4.58
2022-08-26T09:15:49.944Z,11.53
2022-08-26T09:18:28.564Z,7.95
2022-08-26T09:21:03.812Z,7.62
2022-08-26T09:23:38.456Z,5.40
2022-08-26T09:26:18.671Z,4.60
2022-08-26T09:28:53.218Z,7.05
2022-08-26T09:31:28.654Z,4.78
2022-08-26T09:34:11.507Z,5.42
2022-08-26T09:36:45.541Z,4.72
2022-08-26T09:42:25.423Z,5.87
2022-08-26T09:44:59.526Z,4.47
2022-08-26T09:47:33.952Z,7.17
2022-08-26T09:50:12.353Z,9.15
2022-08-26T09:52:43.056Z,5.65
2022-08-26T09:55:17.889Z,11.30
2022-08-26T09:57:52.237Z,5.28
2022-08-26T10:00:34.584Z,5.85
2022-08-26T10:03:10.831Z,5.22
2022-08-26T10:05:45.621Z,5.75
2022-08-26T10:08:26.603Z,11.55
2022-08-26T10:11:01.040Z,6.22
2022-08-26T10:13:38.111Z,5.65
2022-08-26T10:16:16.226Z,5.35
2022-08-26T10:18:56.843Z,8.63
2022-08-26T10:21:29.603Z,4.60
2022-08-26T10:24:03.215Z,5.53
2022-08-26T10:26:38.397Z,5.25
2022-08-26T10:29:15.112Z,7.80
2022-08-26T10:31:51.389Z,5.22
2022-08-26T10:34:23.238Z,4.67
2022-08-26T10:37:14.991Z,5.25
2022-08-26T10:39:34.044Z,16.12
2022-08-26T10:42:08.376Z,4.37
2022-08-26T10:44:44.400Z,8.80
2022-08-26T10:47:20.703Z,4.22
2022-08-26T10:49:57.518Z,6.40
2022-08-26T10:52:31.081Z,5.00
2022-08-26T10:55:05.831Z,3.98
2022-08-26T10:57:43.283Z,5.30
2022-08-26T11:00:35.914Z,6.92
2022-08-26T11:03:21.886Z,6.53
2022-08-26T11:05:45.418Z,5.05
2022-08-26T11:08:31.129Z,7.28
2022-08-26T11:11:03.545Z,5.47
2022-08-26T11:14:11.695Z,4.67
2022-08-26T11:16:46.137Z,5.50
2022-08-26T11:20:01.603Z,8.05
2022-08-26T11:22:47.688Z,7.37
2022-08-26T11:25:16.315Z,7.15
2022-08-26T11:28:00.588Z,7.22
2022-08-26T11:30:44.532Z,4.42
2022-08-26T11:33:52.676Z,4.58
2022-08-26T11:36:59.694Z,6.50
2022-08-26T11:39:38.444Z,5.53
2022-08-26T11:42:21.838Z,7.37
2022-08-26T11:44:57.942Z,5.85
2022-08-26T11:47:31.887Z,4.62
2022-08-26T11:50:13.151Z,5.58
2022-08-26T11:52:52.661Z,4.70
2022-08-26T11:55:24.635Z,4.80
2022-08-26T11:58:00.804Z,6.90
2022-08-26T12:00:36.184Z,9.13
2022-08-26T12:03:09.692Z,4.65
2022-08-26T12:05:44.892Z,3.60
2022-08-26T12:08:20.291Z,3.20
2022-08-26T12:11:03.056Z,3.65
2022-08-26T12:13:34.565Z,3.60
2022-08-26T12:16:07.861Z,3.85
2022-08-26T12:18:40.841Z,5.65
2022-08-26T12:21:16.669Z,3.27
2022-08-26T12:23:52.259Z,3.62
2022-08-26T12:26:28.177Z,4.17
2022-08-26T12:29:02.361Z,3.52
2022-08-26T12:31:37.391Z,11.60
2022-08-26T12:34:17.561Z,8.15
2022-08-26T12:36:48.143Z,4.37
2022-08-26T12:39:29.717Z,3.17
2022-08-26T12:42:02.588Z,5.95
2022-08-26T12:44:37.240Z,8.20
2022-08-26T12:47:15.196Z,4.67
2022-08-26T12:49:48.840Z,5.07
2022-08-26T12:52:30.425Z,3.60
2022-08-26T12:55:05.044Z,3.00
2022-08-26T12:57:38.048Z,5.28
2022-08-26T13:00:34.961Z,6.75
2022-08-26T13:03:08.121Z,3.70
2022-08-26T13:05:40.151Z,3.98
2022-08-26T13:08:14.071Z,4.53
2022-08-26T13:10:48.275Z,4.37
2022-08-26T13:13:19.676Z,2.62
2022-08-26T13:15:52.485Z,4.92
2022-08-26T13:18:24.055Z,3.90
2022-08-26T13:20:55.515Z,3.58
2022-08-26T13:23:27.830Z,6.75
2022-08-26T13:25:59.944Z,3.00
2022-08-26T13:28:31.475Z,5.53
2022-08-26T13:31:03.046Z,4.28
2022-08-26T13:33:36.296Z,4.55
2022-08-26T13:36:09.226Z,4.45
2022-08-26T13:38:40.812Z,9.15
2022-08-26T13:41:12.391Z,4.08
2022-08-26T13:43:45.722Z,5.05
2022-08-26T13:46:17.303Z,5.45
2022-08-26T13:48:49.991Z,10.00
2022-08-26T13:51:22.599Z,5.60
2022-08-26T13:53:54.377Z,4.62
2022-08-26T13:56:27.499Z,3.50
2022-08-26T13:59:01.229Z,2.50
2022-08-26T14:01:33.840Z,2.92
2022-08-26T14:04:05.711Z,4.30
2022-08-26T14:06:37.419Z,2.95
2022-08-26T14:09:08.961Z,2.80
2022-08-26T14:11:54.080Z,3.47
2022-08-26T14:14:14.960Z,3.05
2022-08-26T14:16:58.788Z,4.28
2022-08-26T14:19:19.946Z,4.75
2022-08-26T14:21:53.015Z,8.75
2022-08-26T14:24:24.868Z,4.47
2022-08-26T14:26:56.288Z,2.72
2022-08-26T14:29:28.218Z,4.40
2022-08-26T14:32:01.550Z,2.65
2022-08-26T14:34:33.031Z,8.23
2022-08-26T14:37:07.642Z,3.00
2022-08-26T14:39:38.060Z,3.42
2022-08-26T14:42:10.242Z,2.90
2022-08-26T14:44:45.126Z,2.75
2022-08-26T14:47:16.588Z,2.62
2022-08-26T14:49:48.163Z,2.83
2022-08-26T14:52:19.982Z,4.83
2022-08-26T14:54:51.331Z,6.10
2022-08-26T14:57:24.373Z,2.75
2022-08-26T14:59:55.841Z,4.12
2022-08-26T15:02:33.328Z,3.22
2022-08-26T15:05:01.615Z,3.02
2022-08-26T15:07:34.335Z,4.08
2022-08-26T15:10:08.460Z,4.58
2022-08-26T15:12:41.049Z,2.95
2022-08-26T15:15:16.676Z,2.87
2022-08-26T15:17:48.412Z,6.15
2022-08-26T15:20:21.469Z,4.28
2022-08-26T15:22:53.717Z,6.10
2022-08-26T15:25:25.622Z,4.12
2022-08-26T15:27:57.067Z,3.15
2022-08-26T15:30:28.599Z,6.92
2022-08-26T15:33:00.407Z,6.33
2022-08-26T15:35:32.958Z,4.80
2022-08-26T15:38:04.908Z,3.42
2022-08-26T15:40:36.642Z,2.35
2022-08-26T15:43:25.443Z,4.55
2022-08-26T15:45:42.174Z,5.17
2022-08-26T15:48:13.566Z,5.03
2022-08-26T15:50:51.183Z,3.58
2022-08-26T15:53:23.647Z,3.40
2022-08-26T15:55:56.999Z,2.60
2022-08-26T15:58:30.544Z,3.72
2022-08-26T16:01:02.626Z,4.65
2022-08-26T16:03:34.372Z,6.75
2022-08-26T16:06:06.891Z,3.42
2022-08-26T16:08:38.500Z,4.60
2022-08-26T16:11:10.248Z,4.08
2022-08-26T16:13:41.785Z,7.03
2022-08-26T16:16:13.353Z,8.68
2022-08-26T16:18:45.114Z,5.37
2022-08-26T16:21:18.364Z,7.65
2022-08-26T16:23:50.355Z,7.45
2022-08-26T16:26:25.211Z,5.97
2022-08-26T16:28:57.197Z,7.75
2022-08-26T16:31:28.929Z,5.00
2022-08-26T16:34:00.988Z,6.05
2022-08-26T16:36:32.804Z,6.33
2022-08-26T16:39:05.990Z,5.12
2022-08-26T16:41:37.958Z,7.72
2022-08-26T16:44:11.465Z,8.68
2022-08-26T16:46:43.078Z,5.72
2022-08-26T16:49:14.569Z,10.10
2022-08-26T16:51:46.817Z,7.40
2022-08-26T16:54:18.363Z,7.67
2022-08-26T16:56:49.805Z,5.20
2022-08-26T16:59:21.433Z,5.92
2022-08-26T17:01:52.959Z,6.00
2022-08-26T17:04:24.436Z,3.50
2022-08-26T17:06:56.779Z,5.22
2022-08-26T17:09:28.796Z,4.30
2022-08-26T17:12:00.282Z,3.83
2022-08-26T17:14:33.318Z,4.30
2022-08-26T17:17:05.607Z,14.80
2022-08-26T17:19:40.960Z,15.30
2022-08-26T17:22:11.719Z,6.62
2022-08-26T17:24:43.674Z,10.60
2022-08-26T17:27:15.191Z,11.18
2022-08-26T17:29:46.676Z,6.53
2022-08-26T17:32:18.035Z,7.17
2022-08-26T17:34:50.922Z,4.22
2022-08-26T17:37:22.473Z,7.20
2022-08-26T17:39:53.994Z,7.03
2022-08-26T17:42:31.511Z,4.55
2022-08-26T17:44:58.467Z,4.80
2022-08-26T17:47:29.998Z,4.75
2022-08-26T17:50:01.888Z,3.55
2022-08-26T17:52:33.847Z,4.05
2022-08-26T17:55:07.054Z,4.37
2022-08-26T17:57:40.927Z,10.03
2022-08-26T18:00:17.179Z,8.05
2022-08-26T18:02:48.470Z,11.90
2022-08-26T18:05:20.878Z,11.28
2022-08-26T18:07:52.409Z,14.55
2022-08-26T18:10:25.683Z,10.80
2022-08-26T18:12:56.919Z,17.20
2022-08-26T18:15:28.674Z,13.22
2022-08-26T18:18:00.340Z,12.93
2022-08-26T18:20:31.824Z,15.20
2022-08-26T18:23:03.222Z,10.70
2022-08-26T18:25:35.182Z,14.40
2022-08-26T18:28:06.842Z,16.12
2022-08-26T18:30:38.768Z,10.78
2022-08-26T18:33:10.660Z,13.70
2022-08-26T18:35:43.784Z,7.47
2022-08-26T18:38:15.489Z,11.22
2022-08-26T18:40:47.501Z,10.08
2022-08-26T18:43:19.168Z,8.78
2022-08-26T18:45:50.752Z,8.00
2022-08-26T18:48:23.086Z,12.43
2022-08-26T18:50:55.242Z,8.65
2022-08-26T18:53:28.346Z,10.28
2022-08-26T18:55:59.772Z,11.53
2022-08-26T18:58:31.168Z,11.03
2022-08-26T19:01:02.663Z,12.70
2022-08-26T19:03:34.282Z,15.80
2022-08-26T19:06:09.249Z,9.88
2022-08-26T19:08:42.650Z,8.83
2022-08-26T19:11:14.451Z,10.65
2022-08-26T19:13:46.516Z,10.35
2022-08-26T19:16:19.308Z,12.65
2022-08-26T19:18:51.462Z,11.08
2022-08-26T19:21:24.216Z,12.05
2022-08-26T19:23:58.835Z,11.12
2022-08-26T19:26:31.378Z,11.97
2022-08-26T19:29:03.244Z,14.25
2022-08-26T19:31:34.620Z,10.98
2022-08-26T19:34:07.139Z,13.88
2022-08-26T19:36:38.773Z,13.62
2022-08-26T19:39:12.538Z,10.50
2022-08-26T19:41:44.644Z,12.85
2022-08-26T19:44:19.901Z,16.82
2022-08-26T19:46:51.407Z,15.23
2022-08-26T19:49:23.670Z,14.47
2022-08-26T19:51:55.047Z,11.25
2022-08-26T19:54:27.350Z,11.20
2022-08-26T19:57:01.909Z,15.05
2022-08-26T19:59:33.685Z,12.70
2022-08-26T20:02:10.039Z,15.25
2022-08-26T20:04:40.144Z,11.30
2022-08-26T20:07:16.513Z,11.12
2022-08-26T20:09:46.211Z,15.38
2022-08-26T20:12:18.610Z,14.58
2022-08-26T20:14:49.998Z,12.45
2022-08-26T20:17:22.208Z,11.08
2022-08-26T20:20:16.074Z,10.20
2022-08-26T20:22:44.837Z,13.43
2022-08-26T20:25:16.794Z,10.32
2022-08-26T20:27:48.296Z,9.45
2022-08-26T20:30:20.196Z,9.53
2022-08-26T20:32:52.407Z,9.83
2022-08-26T20:35:24.754Z,13.03
2022-08-26T20:37:56.423Z,10.20
2022-08-26T20:40:29.372Z,14.28
2022-08-26T20:43:00.862Z,11.35
2022-08-26T20:45:32.722Z,13.03
2022-08-26T20:48:04.897Z,10.38
2022-08-26T20:50:38.087Z,12.23
2022-08-26T20:53:09.701Z,9.98
2022-08-26T20:55:41.170Z,12.50
2022-08-26T20:58:12.704Z,11.25
2022-08-26T21:00:44.145Z,10.82
2022-08-26T21:03:15.822Z,13.35
2022-08-26T21:05:47.304Z,12.98
2022-08-26T21:08:18.792Z,12.35
2022-08-26T21:10:51.123Z,15.28
2022-08-26T21:13:23.740Z,16.80
2022-08-26T21:15:58.236Z,14.93
2022-08-26T21:18:29.689Z,18.85
2022-08-26T21:21:02.664Z,16.87
2022-08-26T21:23:34.430Z,20.48
2022-08-26T21:26:08.671Z,17.07
2022-08-26T21:28:42.348Z,19.05
2022-08-26T21:31:16.281Z,16.75
2022-08-26T21:33:48.125Z,16.32
2022-08-26T21:36:20.392Z,18.07
2022-08-26T21:38:51.944Z,17.30
2022-08-26T21:41:24.196Z,15.40
2022-08-26T21:43:59.069Z,14.03
2022-08-26T21:46:34.267Z,15.28
2022-08-26T21:49:07.947Z,14.20
2022-08-26T21:51:41.644Z,11.35
2022-08-26T21:54:14.314Z,11.10
2022-08-26T21:56:47.688Z,13.48
2022-08-26T21:59:20.507Z,12.35
2022-08-26T22:01:52.383Z,13.55
2022-08-26T22:04:24.160Z,15.43
2022-08-26T22:06:57.781Z,14.70
2022-08-26T22:09:31.603Z,14.05
2022-08-26T22:12:03.287Z,14.18
2022-08-26T22:14:35.294Z,11.65
2022-08-26T22:17:07.003Z,12.30
2022-08-26T22:19:41.338Z,14.85
2022-08-26T22:22:11.867Z,14.50
2022-08-26T22:24:43.930Z,12.90
2022-08-26T22:27:16.036Z,12.73
2022-08-26T22:29:47.971Z,11.85
2022-08-26T22:32:19.486Z,11.43
2022-08-26T22:34:50.914Z,9.88
2022-08-26T22:37:22.393Z,10.08
2022-08-26T22:39:54.417Z,8.83
2022-08-26T22:42:25.765Z,9.38
2022-08-26T22:44:57.112Z,7.95
2022-08-26T22:47:28.663Z,6.03
2022-08-26T22:50:01.330Z,5.40
2022-08-26T22:52:32.810Z,6.08
2022-08-26T22:55:04.702Z,7.20
2022-08-26T22:57:36.308Z,6.45
2022-08-26T23:00:14.529Z,5.87
2022-08-26T23:02:46.310Z,5.17
2022-08-26T23:05:17.724Z,5.87
2022-08-26T23:07:49.127Z,6.03
2022-08-26T23:10:20.621Z,6.67
2022-08-26T23:12:53.342Z,7.33
2022-08-26T23:15:25.028Z,6.50
2022-08-26T23:18:03.138Z,9.58
2022-08-26T23:20:30.699Z,7.75
2022-08-26T23:23:02.689Z,7.83
2022-08-26T23:25:35.284Z,7.45
2022-08-26T23:28:07.056Z,6.60
2022-08-26T23:30:38.520Z,6.90
2022-08-26T23:33:09.885Z,9.20
2022-08-26T23:35:41.457Z,5.92
2022-08-26T23:38:14.174Z,6.72
2022-08-26T23:40:47.364Z,5.53
2022-08-26T23:43:18.749Z,5.37
2022-08-26T23:45:50.195Z,7.87
2022-08-26T23:48:21.833Z,6.40
2022-08-26T23:51:10.865Z,5.42
2022-08-26T23:53:43.711Z,5.35
2022-08-26T23:56:17.667Z,6.25
2022-08-26T23:58:49.138Z,5.40
